Time;durP1;ratioP1;P1;durP2;ratioP2;P2;SDS_P1;SDS_P2;PMS_P1;PMS_P2;Temp;Humidity;BMP_temperature;BMP_pressure;BME280_temperature;BME280_humidity;BME280_pressure;Samples;Min_cycle;Max_cycle;Signal;HPM_P1;HPM_P2
2022/04/09 00:02:15;;;;;;;;;;;5.30;99.90;;;;;;5126116;27;19911;-62
2022/04/09 00:04:42;;;;;;;;;;;5.40;99.90;;;;;;5135439;27;19911;-62
2022/04/09 00:07:07;;;;;;;;;;;5.40;99.90;;;;;;5126687;27;20281;-65
2022/04/09 00:09:33;;;;;;;;;;;5.30;99.90;;;;;;5127326;27;19937;-63
2022/04/09 00:11:58;;;;;;;;;;;5.20;99.90;;;;;;5131751;27;20415;-62
2022/04/09 00:14:24;;;;;;;;;;;5.10;99.90;;;;;;5116622;27;19923;-63
2022/04/09 00:16:50;;;;;;;;;;;5.10;99.90;;;;;;5131049;27;19923;-62
2022/04/09 00:19:15;;;;;;;;;;;5.10;99.90;;;;;;5131205;27;20542;-63
2022/04/09 00:21:41;;;;;;;;;;;5.00;99.90;;;;;;5132432;27;19922;-62
2022/04/09 00:24:07;;;;;;;;;;;5.00;99.90;;;;;;5132081;27;19953;-62
2022/04/09 00:26:32;;;;;;;;;;;5.00;99.90;;;;;;5124623;27;19946;-62
2022/04/09 00:28:58;;;;;;;;;;;5.00;99.90;;;;;;5130964;27;20280;-64
2022/04/09 00:31:23;;;;;;;;;;;5.00;99.90;;;;;;5127501;27;19920;-63
2022/04/09 00:33:49;;;;;;;;;;;5.00;99.90;;;;;;5105784;27;20346;-62
2022/04/09 00:36:15;;;;;;;;;;;4.80;99.90;;;;;;5119930;27;19925;-61
2022/04/09 00:38:40;;;;;;;;;;;4.70;99.90;;;;;;5114231;27;20352;-63
2022/04/09 00:41:08;;;;;;;;;;;4.80;99.90;;;;;;5130608;27;19924;-63
2022/04/09 00:43:37;;;;;;;;;;;4.70;99.90;;;;;;5130163;27;20250;-62
2022/04/09 00:46:03;;;;;;;;;;;4.80;99.90;;;;;;5125677;27;19938;-61
2022/04/09 00:48:28;;;;;;;;;;;4.90;99.90;;;;;;5124903;27;19918;-63
2022/04/09 00:50:54;;;;;;;;;;;4.90;99.90;;;;;;5108171;27;19911;-62
2022/04/09 00:53:21;;;;;;;;;;;4.80;99.90;;;;;;5124395;27;19957;-63
2022/04/09 00:58:33;;;;;;;;;;;4.70;99.90;;;;;;5128540;27;19918;-61
2022/04/09 01:01:00;;;;;;;;;;;4.60;99.90;;;;;;5110063;27;20009;-64
2022/04/09 01:03:27;;;;;;;;;;;4.60;99.90;;;;;;5124909;27;19916;-62
2022/04/09 01:05:52;;;;;;;;;;;4.50;99.90;;;;;;5128248;27;19954;-61
2022/04/09 01:08:18;;;;;;;;;;;4.50;99.90;;;;;;5124520;27;20042;-63
2022/04/09 01:10:48;;;;;;;;;;;4.40;99.90;;;;;;5127280;27;19920;-62
2022/04/09 01:13:14;;;;;;;;;;;4.40;99.90;;;;;;5119976;27;19998;-62
2022/04/09 01:15:40;;;;;;;;;;;4.40;99.90;;;;;;5103999;27;20284;-61
2022/04/09 01:18:05;;;;;;;;;;;4.30;99.90;;;;;;5108857;27;19916;-62
2022/04/09 01:20:31;;;;;;;;;;;4.30;99.90;;;;;;5121842;27;19916;-63
2022/04/09 01:22:56;;;;;;;;;;;4.30;99.90;;;;;;5124755;28;20004;-63
2022/04/09 01:25:22;;;;;;;;;;;4.30;99.90;;;;;;5118632;28;20281;-63
2022/04/09 01:27:48;;;;;;;;;;;4.30;99.90;;;;;;5108944;28;19912;-63
2022/04/09 01:30:14;;;;;;;;;;;4.40;99.90;;;;;;5124139;27;19918;-63
2022/04/09 01:32:40;;;;;;;;;;;4.40;99.90;;;;;;5107110;28;19918;-63
2022/04/09 01:35:06;;;;;;;;;;;4.40;99.90;;;;;;5124036;27;19915;-62
2022/04/09 01:37:31;;;;;;;;;;;4.40;99.90;;;;;;5118906;27;19919;-62
2022/04/09 01:39:57;;;;;;;;;;;4.40;99.90;;;;;;5119925;27;19978;-64
2022/04/09 01:42:26;;;;;;;;;;;4.40;99.90;;;;;;5130683;27;19977;-62
2022/04/09 01:44:52;;;;;;;;;;;4.40;99.90;;;;;;5131922;27;20246;-62
2022/04/09 01:47:17;;;;;;;;;;;4.40;99.90;;;;;;5130162;27;19915;-62
2022/04/09 01:49:43;;;;;;;;;;;4.30;99.90;;;;;;5108173;28;19912;-63
2022/04/09 01:52:09;;;;;;;;;;;4.20;99.90;;;;;;5126589;27;19918;-64
2022/04/09 01:54:34;;;;;;;;;;;4.20;99.90;;;;;;5111850;27;19911;-63
2022/04/09 01:57:00;;;;;;;;;;;4.20;99.90;;;;;;5126210;27;19912;-62
2022/04/09 01:59:26;;;;;;;;;;;4.10;99.90;;;;;;5128865;27;19963;-63
2022/04/09 02:01:51;;;;;;;;;;;4.00;99.90;;;;;;5130687;27;20383;-62
2022/04/09 02:04:17;;;;;;;;;;;4.00;99.90;;;;;;5127377;27;20300;-63
2022/04/09 02:06:42;;;;;;;;;;;4.10;99.90;;;;;;5132053;27;20388;-62
2022/04/09 02:09:11;;;;;;;;;;;4.10;99.90;;;;;;5137045;27;20390;-62
2022/04/09 02:11:41;;;;;;;;;;;4.10;99.90;;;;;;5135449;27;20365;-63
2022/04/09 02:14:08;;;;;;;;;;;4.20;99.90;;;;;;5134989;27;19960;-66
2022/04/09 02:16:33;;;;;;;;;;;4.20;99.90;;;;;;5133479;27;19911;-64
2022/04/09 02:18:59;;;;;;;;;;;4.10;99.90;;;;;;5132265;27;20291;-62
2022/04/09 02:21:25;;;;;;;;;;;4.20;99.90;;;;;;5122914;27;19923;-62
2022/04/09 02:23:50;;;;;;;;;;;4.10;99.90;;;;;;5134203;27;20310;-63
2022/04/09 02:26:16;;;;;;;;;;;4.00;99.90;;;;;;5120682;27;19977;-63
2022/04/09 02:28:41;;;;;;;;;;;3.90;99.90;;;;;;5120243;27;19911;-63
2022/04/09 02:31:07;;;;;;;;;;;4.00;99.90;;;;;;5114976;27;19911;-62
2022/04/09 02:33:33;;;;;;;;;;;4.00;99.90;;;;;;5133619;27;19912;-63
2022/04/09 02:36:01;;;;;;;;;;;3.90;99.90;;;;;;5129468;27;19918;-64
2022/04/09 02:38:27;;;;;;;;;;;3.90;99.90;;;;;;5134775;28;19918;-63
2022/04/09 02:40:52;;;;;;;;;;;3.90;99.90;;;;;;5132556;27;20300;-62
2022/04/09 02:43:18;;;;;;;;;;;4.00;99.90;;;;;;5130857;27;19919;-63
2022/04/09 02:45:43;;;;;;;;;;;4.00;99.90;;;;;;5124924;28;19919;-62
2022/04/09 02:48:10;;;;;;;;;;;4.00;99.90;;;;;;5129594;28;19954;-63
2022/04/09 02:50:35;;;;;;;;;;;3.90;99.90;;;;;;5134386;27;19911;-63
2022/04/09 02:53:01;;;;;;;;;;;4.00;99.90;;;;;;5133635;27;19934;-62
2022/04/09 02:55:26;;;;;;;;;;;4.10;99.90;;;;;;5130849;28;19911;-62
2022/04/09 02:57:52;;;;;;;;;;;4.00;99.90;;;;;;5131414;28;20372;-63
2022/04/09 03:00:18;;;;;;;;;;;4.00;99.90;;;;;;5125557;28;20395;-62
2022/04/09 03:02:43;;;;;;;;;;;4.00;99.90;;;;;;5132250;28;19989;-63
2022/04/09 03:05:09;;;;;;;;;;;4.00;99.90;;;;;;5110363;28;19919;-63
2022/04/09 03:07:35;;;;;;;;;;;4.00;99.90;;;;;;5106943;28;19912;-62
2022/04/09 03:10:01;;;;;;;;;;;3.90;99.90;;;;;;5126523;28;19983;-62
2022/04/09 03:12:26;;;;;;;;;;;3.90;99.90;;;;;;5127371;27;19912;-62
2022/04/09 03:14:52;;;;;;;;;;;3.90;99.90;;;;;;5133114;28;20014;-63
2022/04/09 03:17:18;;;;;;;;;;;3.90;99.90;;;;;;5129542;27;19915;-63
2022/04/09 03:19:43;;;;;;;;;;;3.80;99.90;;;;;;5132734;27;19915;-63
2022/04/09 03:22:09;;;;;;;;;;;3.70;99.90;;;;;;5133809;28;20364;-63
2022/04/09 03:24:34;;;;;;;;;;;3.70;99.90;;;;;;5115489;28;20006;-63
2022/04/09 03:27:00;;;;;;;;;;;3.60;99.90;;;;;;5127019;27;19935;-63
2022/04/09 03:29:25;;;;;;;;;;;3.60;99.90;;;;;;5132580;27;20561;-63
2022/04/09 03:31:51;;;;;;;;;;;3.60;99.90;;;;;;5132565;27;19918;-63
2022/04/09 03:34:17;;;;;;;;;;;3.60;99.90;;;;;;5136713;27;19911;-63
2022/04/09 03:36:42;;;;;;;;;;;3.60;99.90;;;;;;5063066;27;1849603;-62
2022/04/09 03:39:08;;;;;;;;;;;3.60;99.90;;;;;;5131180;27;19918;-62
2022/04/09 03:41:34;;;;;;;;;;;3.60;99.90;;;;;;5135063;27;19922;-63
2022/04/09 03:44:00;;;;;;;;;;;3.50;99.90;;;;;;5116047;27;19912;-63
2022/04/09 03:46:25;;;;;;;;;;;3.50;99.90;;;;;;5115268;27;20253;-63
2022/04/09 03:48:51;;;;;;;;;;;3.50;99.90;;;;;;5119702;27;19980;-64
2022/04/09 03:51:16;;;;;;;;;;;3.50;99.90;;;;;;5117297;27;19958;-62
2022/04/09 03:53:42;;;;;;;;;;;3.50;99.90;;;;;;5128131;27;19912;-62
2022/04/09 03:56:07;;;;;;;;;;;3.50;99.90;;;;;;5128194;27;19923;-63
2022/04/09 03:58:35;;;;;;;;;;;3.30;99.90;;;;;;5132211;27;19911;-62
2022/04/09 04:01:01;;;;;;;;;;;3.00;99.90;;;;;;5132711;27;19915;-65
2022/04/09 04:03:27;;;;;;;;;;;3.10;99.90;;;;;;5136133;27;19936;-62
2022/04/09 04:05:53;;;;;;;;;;;3.20;99.90;;;;;;5132804;27;19912;-63
2022/04/09 04:08:18;;;;;;;;;;;3.10;99.90;;;;;;5122821;27;19994;-62
2022/04/09 04:10:44;;;;;;;;;;;3.10;99.90;;;;;;5127490;27;19920;-62
2022/04/09 04:13:11;;;;;;;;;;;3.10;99.90;;;;;;5103109;27;20318;-63
2022/04/09 04:15:36;;;;;;;;;;;3.10;99.90;;;;;;5131703;27;19977;-63
2022/04/09 04:18:03;;;;;;;;;;;3.20;99.90;;;;;;5124658;27;19916;-65
2022/04/09 04:20:29;;;;;;;;;;;3.10;99.90;;;;;;5108483;27;20285;-62
2022/04/09 04:22:54;;;;;;;;;;;3.10;99.90;;;;;;5119625;27;19927;-62
2022/04/09 04:25:20;;;;;;;;;;;3.10;99.90;;;;;;5111966;27;20357;-63
2022/04/09 04:27:47;;;;;;;;;;;3.10;99.90;;;;;;5124607;27;20066;-65
2022/04/09 04:30:13;;;;;;;;;;;3.10;99.90;;;;;;5129380;27;19911;-62
2022/04/09 04:32:39;;;;;;;;;;;3.10;99.90;;;;;;5130400;27;19993;-62
2022/04/09 04:35:05;;;;;;;;;;;3.10;99.90;;;;;;5119233;27;19912;-62
2022/04/09 04:37:40;;;;;;;;;;;3.10;99.90;;;;;;5131332;27;19927;-64
2022/04/09 04:40:06;;;;;;;;;;;3.00;99.90;;;;;;5122197;27;20104;-63
2022/04/09 04:42:32;;;;;;;;;;;2.90;99.90;;;;;;5118214;27;20429;-63
2022/04/09 04:44:58;;;;;;;;;;;2.90;99.90;;;;;;5126681;27;19912;-63
2022/04/09 04:47:23;;;;;;;;;;;2.90;99.90;;;;;;5123294;27;20221;-63
2022/04/09 04:49:49;;;;;;;;;;;2.90;99.90;;;;;;5123635;27;19916;-66
2022/04/09 04:52:14;;;;;;;;;;;2.90;99.90;;;;;;5132881;27;19911;-65
2022/04/09 04:54:40;;;;;;;;;;;3.00;99.90;;;;;;5130953;27;19919;-63
2022/04/09 04:57:05;;;;;;;;;;;3.00;99.90;;;;;;5130451;27;19923;-62
2022/04/09 04:59:31;;;;;;;;;;;2.90;99.90;;;;;;5105286;27;19955;-64
2022/04/09 05:01:57;;;;;;;;;;;2.90;99.90;;;;;;5133901;27;19940;-63
2022/04/09 05:04:25;;;;;;;;;;;2.90;99.90;;;;;;5130921;27;19912;-62
2022/04/09 05:06:51;;;;;;;;;;;2.90;99.90;;;;;;5121126;27;20415;-63
2022/04/09 05:09:17;;;;;;;;;;;2.90;99.90;;;;;;5129758;27;20022;-62
2022/04/09 05:11:43;;;;;;;;;;;2.80;99.90;;;;;;5105215;27;20292;-65
2022/04/09 05:14:09;;;;;;;;;;;2.80;99.90;;;;;;5105713;27;19919;-62
2022/04/09 05:16:34;;;;;;;;;;;2.60;99.90;;;;;;5133234;27;19912;-61
2022/04/09 05:19:00;;;;;;;;;;;2.60;99.90;;;;;;5123533;27;19937;-64
2022/04/09 05:21:25;;;;;;;;;;;2.60;99.90;;;;;;5121458;27;20002;-62
2022/04/09 05:23:51;;;;;;;;;;;2.60;99.90;;;;;;5128635;27;19911;-62
2022/04/09 05:26:17;;;;;;;;;;;2.70;99.90;;;;;;5118167;28;19911;-62
2022/04/09 05:28:42;;;;;;;;;;;2.70;99.90;;;;;;5123779;27;19912;-62
2022/04/09 05:31:09;;;;;;;;;;;2.70;99.90;;;;;;5132856;28;19912;-63
2022/04/09 05:33:35;;;;;;;;;;;2.70;99.90;;;;;;5121124;27;19919;-62
2022/04/09 05:36:02;;;;;;;;;;;2.70;99.90;;;;;;5125113;27;20284;-62
2022/04/09 05:38:28;;;;;;;;;;;2.70;99.90;;;;;;5129359;27;19911;-61
2022/04/09 05:40:53;;;;;;;;;;;2.70;99.90;;;;;;5115990;28;20289;-63
2022/04/09 05:43:19;;;;;;;;;;;2.80;99.90;;;;;;5109349;28;19916;-62
2022/04/09 05:45:45;;;;;;;;;;;2.70;99.90;;;;;;5129153;27;20049;-66
2022/04/09 05:48:10;;;;;;;;;;;2.80;99.90;;;;;;5133057;28;19972;-63
2022/04/09 05:50:36;;;;;;;;;;;2.70;99.90;;;;;;5128578;27;19915;-62
2022/04/09 05:53:02;;;;;;;;;;;2.70;99.90;;;;;;5127860;27;19911;-62
2022/04/09 05:55:28;;;;;;;;;;;2.70;99.90;;;;;;5109789;28;19912;-63
2022/04/09 05:57:54;;;;;;;;;;;2.70;99.90;;;;;;5116331;28;19996;-62
2022/04/09 06:00:19;;;;;;;;;;;2.70;99.90;;;;;;5120640;27;20343;-63
2022/04/09 06:02:45;;;;;;;;;;;2.70;99.90;;;;;;5129346;27;19915;-66
2022/04/09 06:05:11;;;;;;;;;;;2.70;99.90;;;;;;5125509;28;19937;-63
2022/04/09 06:07:37;;;;;;;;;;;2.90;99.90;;;;;;5117658;27;19911;-63
2022/04/09 06:10:05;;;;;;;;;;;3.00;99.90;;;;;;5117686;27;20432;-63
2022/04/09 06:12:31;;;;;;;;;;;3.00;99.90;;;;;;5131805;27;20470;-63
2022/04/09 06:14:57;;;;;;;;;;;3.00;99.90;;;;;;5115960;28;20001;-63
2022/04/09 06:17:26;;;;;;;;;;;3.10;99.90;;;;;;5098809;28;19950;-62
2022/04/09 06:19:51;;;;;;;;;;;3.10;99.90;;;;;;5120137;28;20345;-62
2022/04/09 06:22:18;;;;;;;;;;;3.00;99.90;;;;;;5129786;27;19930;-64
2022/04/09 06:24:44;;;;;;;;;;;3.00;99.90;;;;;;5134086;27;19919;-62
2022/04/09 06:27:15;;;;;;;;;;;3.00;99.90;;;;;;5135867;27;19911;-62
2022/04/09 06:29:41;;;;;;;;;;;3.10;99.90;;;;;;5136046;27;19911;-61
2022/04/09 06:32:07;;;;;;;;;;;3.20;99.90;;;;;;5140796;27;19918;-63
2022/04/09 06:34:32;;;;;;;;;;;3.20;99.90;;;;;;5120330;27;20257;-63
2022/04/09 06:36:59;;;;;;;;;;;3.20;99.90;;;;;;5142795;27;20368;-63
2022/04/09 06:39:25;;;;;;;;;;;3.30;99.90;;;;;;5136972;27;20005;-63
2022/04/09 06:41:51;;;;;;;;;;;3.20;99.90;;;;;;5119357;27;19947;-62
2022/04/09 06:44:16;;;;;;;;;;;3.20;99.90;;;;;;5126092;27;20365;-63
2022/04/09 06:46:43;;;;;;;;;;;3.20;99.90;;;;;;5133002;27;20380;-63
2022/04/09 06:49:10;;;;;;;;;;;3.30;99.90;;;;;;5132040;27;19915;-62
2022/04/09 06:51:36;;;;;;;;;;;3.50;99.90;;;;;;5130336;27;19995;-63
2022/04/09 06:54:01;;;;;;;;;;;3.60;99.90;;;;;;5131779;27;19954;-62
2022/04/09 06:56:27;;;;;;;;;;;3.60;99.90;;;;;;5135669;27;19918;-63
2022/04/09 06:58:52;;;;;;;;;;;3.80;99.90;;;;;;5122359;27;20023;-65
2022/04/09 07:01:18;;;;;;;;;;;3.90;99.90;;;;;;5131714;27;19922;-66
2022/04/09 07:03:44;;;;;;;;;;;4.00;99.90;;;;;;5128251;27;20013;-62
2022/04/09 07:06:10;;;;;;;;;;;4.10;99.90;;;;;;5110125;27;19987;-64
2022/04/09 07:08:35;;;;;;;;;;;4.20;99.90;;;;;;5130830;27;19922;-63
2022/04/09 07:11:01;;;;;;;;;;;4.30;99.90;;;;;;5132876;27;20007;-61
2022/04/09 07:13:28;;;;;;;;;;;4.40;99.90;;;;;;5113804;27;19912;-61
2022/04/09 07:15:54;;;;;;;;;;;4.60;99.90;;;;;;5120407;27;19947;-63
2022/04/09 07:18:20;;;;;;;;;;;4.70;99.90;;;;;;5117550;27;19918;-63
2022/04/09 07:20:46;;;;;;;;;;;4.80;99.90;;;;;;5135348;27;19969;-63
2022/04/09 07:23:11;;;;;;;;;;;5.00;99.90;;;;;;5118514;27;19957;-62
2022/04/09 07:25:37;;;;;;;;;;;5.00;99.90;;;;;;5131790;27;19934;-61
2022/04/09 07:28:02;;;;;;;;;;;5.10;99.90;;;;;;5113991;27;19918;-63
2022/04/09 07:30:28;;;;;;;;;;;5.10;99.90;;;;;;5127600;27;20340;-63
2022/04/09 07:32:58;;;;;;;;;;;5.20;99.90;;;;;;5123405;27;20380;-63
2022/04/09 07:35:25;;;;;;;;;;;5.30;99.90;;;;;;5131876;27;20010;-63
2022/04/09 07:37:54;;;;;;;;;;;5.40;99.90;;;;;;5114341;27;19988;-63
2022/04/09 07:40:20;;;;;;;;;;;5.40;99.90;;;;;;5127743;27;20280;-64
2022/04/09 07:42:46;;;;;;;;;;;5.40;99.90;;;;;;5119507;27;20486;-65
2022/04/09 07:45:12;;;;;;;;;;;5.60;99.90;;;;;;5121557;27;19956;-63
2022/04/09 07:47:38;;;;;;;;;;;5.70;99.90;;;;;;5128282;27;20368;-62
2022/04/09 07:50:07;;;;;;;;;;;5.80;99.90;;;;;;5131029;27;19912;-62
2022/04/09 07:52:33;;;;;;;;;;;5.80;99.90;;;;;;5133314;27;20452;-64
2022/04/09 07:54:59;;;;;;;;;;;5.90;99.90;;;;;;5121285;27;19954;-63
2022/04/09 07:57:25;;;;;;;;;;;5.90;99.90;;;;;;5101442;28;19919;-61
2022/04/09 07:59:55;;;;;;;;;;;6.10;99.90;;;;;;5111289;27;19919;-62
2022/04/09 08:02:25;;;;;;;;;;;6.10;99.90;;;;;;5123630;27;20413;-63
2022/04/09 08:04:51;;;;;;;;;;;6.20;99.90;;;;;;5120554;27;20419;-63
2022/04/09 08:07:16;;;;;;;;;;;6.20;99.90;;;;;;5125950;27;19941;-63
2022/04/09 08:09:44;;;;;;;;;;;6.30;99.90;;;;;;5129067;27;19911;-63
2022/04/09 08:12:11;;;;;;;;;;;6.40;99.90;;;;;;5122392;27;19911;-62
2022/04/09 08:14:37;;;;;;;;;;;6.40;99.90;;;;;;5133494;27;19911;-60
2022/04/09 08:17:03;;;;;;;;;;;6.50;99.90;;;;;;5127307;27;19957;-62
2022/04/09 08:19:29;;;;;;;;;;;6.50;99.90;;;;;;5131193;27;19915;-63
2022/04/09 08:21:56;;;;;;;;;;;6.60;99.90;;;;;;5128093;27;19940;-62
2022/04/09 08:24:21;;;;;;;;;;;6.60;99.90;;;;;;5131805;27;19919;-62
2022/04/09 08:26:47;;;;;;;;;;;6.80;99.90;;;;;;5113153;27;20287;-62
2022/04/09 08:29:18;;;;;;;;;;;6.90;99.90;;;;;;5116102;27;19912;-62
2022/04/09 08:31:47;;;;;;;;;;;6.90;99.90;;;;;;5125137;27;19943;-64
2022/04/09 08:34:12;;;;;;;;;;;7.00;99.90;;;;;;5122826;27;19911;-63
2022/04/09 08:36:38;;;;;;;;;;;6.90;99.90;;;;;;5118275;27;20009;-63
2022/04/09 08:39:04;;;;;;;;;;;6.90;99.90;;;;;;5106651;28;19912;-63
2022/04/09 08:41:30;;;;;;;;;;;7.10;99.90;;;;;;5122857;27;19911;-63
2022/04/09 08:43:58;;;;;;;;;;;7.10;99.90;;;;;;5119990;27;19923;-63
2022/04/09 08:46:27;;;;;;;;;;;7.20;99.90;;;;;;5103077;27;19915;-66
2022/04/09 08:48:53;;;;;;;;;;;7.30;99.90;;;;;;5130482;27;19919;-63
2022/04/09 08:51:19;;;;;;;;;;;7.40;99.90;;;;;;5117942;28;19994;-63
2022/04/09 08:53:45;;;;;;;;;;;7.40;99.90;;;;;;5134941;27;20011;-63
2022/04/09 08:56:12;;;;;;;;;;;7.50;99.90;;;;;;5122301;27;19912;-63
2022/04/09 08:58:37;;;;;;;;;;;7.60;99.90;;;;;;5130827;27;19919;-64
2022/04/09 09:01:03;;;;;;;;;;;7.70;99.90;;;;;;5109094;27;19916;-63
2022/04/09 09:03:29;;;;;;;;;;;7.80;99.90;;;;;;5124430;27;19922;-63
2022/04/09 09:05:55;;;;;;;;;;;7.80;99.90;;;;;;5118939;27;19947;-63
2022/04/09 09:08:41;;;;;;;;;;;8.00;99.90;;;;;;5126228;27;19931;-63
2022/04/09 09:11:06;;;;;;;;;;;8.10;99.90;;;;;;5129353;27;19912;-62
2022/04/09 09:13:46;;;;;;;;;;;8.30;99.90;;;;;;5122303;27;19911;-65
2022/04/09 09:16:20;;;;;;;;;;;8.30;99.90;;;;;;5119048;27;19912;-64
2022/04/09 09:18:49;;;;;;;;;;;8.40;99.90;;;;;;5121316;27;19911;-64
2022/04/09 09:21:17;;;;;;;;;;;8.50;99.90;;;;;;5115212;27;19915;-64
2022/04/09 09:23:43;;;;;;;;;;;8.40;99.90;;;;;;5121155;27;19918;-65
2022/04/09 09:26:08;;;;;;;;;;;8.50;99.90;;;;;;5117109;28;20285;-63
2022/04/09 09:28:34;;;;;;;;;;;8.60;99.90;;;;;;5119700;27;19928;-64
2022/04/09 09:31:00;;;;;;;;;;;8.80;99.90;;;;;;5122375;28;19912;-63
2022/04/09 09:33:26;;;;;;;;;;;8.90;99.90;;;;;;5116056;28;20293;-64
2022/04/09 09:35:56;;;;;;;;;;;8.80;99.90;;;;;;5123673;28;19912;-63
2022/04/09 09:38:33;;;;;;;;;;;8.90;99.90;;;;;;5108846;28;19950;-65
2022/04/09 09:41:01;;;;;;;;;;;8.80;99.90;;;;;;5130337;28;20291;-63
2022/04/09 09:43:27;;;;;;;;;;;8.60;99.90;;;;;;5124660;28;19924;-63
2022/04/09 09:45:53;;;;;;;;;;;8.60;99.90;;;;;;5117958;27;20365;-66
2022/04/09 09:48:19;;;;;;;;;;;8.70;99.90;;;;;;5113068;27;19912;-63
2022/04/09 09:50:45;;;;;;;;;;;8.80;99.90;;;;;;5118240;28;20350;-63
2022/04/09 09:53:11;;;;;;;;;;;8.80;99.90;;;;;;5119760;27;19912;-63
2022/04/09 09:55:43;;;;;;;;;;;8.70;99.90;;;;;;5128182;28;19953;-62
2022/04/09 09:58:16;;;;;;;;;;;8.70;99.90;;;;;;5120844;27;19917;-63
2022/04/09 10:00:42;;;;;;;;;;;8.70;99.90;;;;;;5129359;27;19915;-62
2022/04/09 10:03:09;;;;;;;;;;;8.70;99.90;;;;;;5124400;27;19960;-64
2022/04/09 10:05:37;;;;;;;;;;;8.80;99.90;;;;;;5131809;27;19930;-62
2022/04/09 10:08:03;;;;;;;;;;;8.90;99.90;;;;;;5129309;27;20437;-62
2022/04/09 10:10:29;;;;;;;;;;;9.00;99.90;;;;;;5124507;27;20006;-63
2022/04/09 10:12:57;;;;;;;;;;;9.00;99.90;;;;;;5127693;27;20064;-61
2022/04/09 10:15:25;;;;;;;;;;;9.10;99.90;;;;;;5120060;27;19915;-64
2022/04/09 10:17:53;;;;;;;;;;;9.10;99.90;;;;;;5116611;27;19968;-64
2022/04/09 10:20:19;;;;;;;;;;;9.30;98.80;;;;;;5136331;27;19977;-64
2022/04/09 10:22:48;;;;;;;;;;;9.40;99.20;;;;;;5119594;27;19924;-64
2022/04/09 10:25:14;;;;;;;;;;;9.40;99.00;;;;;;5126505;27;19951;-65
2022/04/09 10:27:47;;;;;;;;;;;9.40;99.00;;;;;;5137290;27;20010;-63
2022/04/09 10:30:14;;;;;;;;;;;9.30;98.60;;;;;;5123893;27;19912;-64
2022/04/09 10:32:47;;;;;;;;;;;9.20;98.40;;;;;;5118227;27;19920;-63
2022/04/09 10:35:38;;;;;;;;;;;9.40;97.20;;;;;;5119270;27;20280;-62
2022/04/09 10:38:07;;;;;;;;;;;9.60;96.90;;;;;;5127725;27;19926;-65
2022/04/09 10:40:36;;;;;;;;;;;9.90;97.50;;;;;;5128322;27;19915;-64
2022/04/09 10:43:03;;;;;;;;;;;10.30;96.80;;;;;;5133334;27;19919;-62
2022/04/09 10:45:29;;;;;;;;;;;10.40;96.80;;;;;;5121477;27;19911;-63
2022/04/09 10:48:23;;;;;;;;;;;10.50;94.50;;;;;;5126783;27;19912;-64
2022/04/09 10:50:56;;;;;;;;;;;10.30;95.70;;;;;;5106720;27;20010;-64
2022/04/09 10:53:23;;;;;;;;;;;10.20;96.40;;;;;;5124940;27;19919;-63
2022/04/09 10:56:07;;;;;;;;;;;10.00;97.00;;;;;;5131878;27;19912;-63
2022/04/09 10:58:52;;;;;;;;;;;10.00;96.30;;;;;;5131005;27;19911;-63
2022/04/09 11:01:36;;;;;;;;;;;10.30;96.20;;;;;;5132054;27;19916;-64
2022/04/09 11:04:22;;;;;;;;;;;10.30;96.30;;;;;;5126194;27;19916;-65
2022/04/09 11:06:59;;;;;;;;;;;10.30;96.40;;;;;;5126051;27;19933;-61
2022/04/09 11:09:25;;;;;;;;;;;10.50;95.60;;;;;;5110167;27;19954;-63
2022/04/09 11:12:01;;;;;;;;;;;10.50;95.00;;;;;;5132288;27;19974;-64
2022/04/09 11:14:26;;;;;;;;;;;10.70;95.40;;;;;;5139408;27;19963;-64
2022/04/09 11:16:52;;;;;;;;;;;10.80;94.20;;;;;;5140940;27;19947;-63
2022/04/09 11:19:21;;;;;;;;;;;10.90;93.50;;;;;;5116266;27;19937;-63
2022/04/09 11:21:50;;;;;;;;;;;10.80;94.20;;;;;;5136360;27;19995;-62
2022/04/09 11:24:15;;;;;;;;;;;10.70;93.90;;;;;;5139588;27;20006;-64
2022/04/09 11:26:53;;;;;;;;;;;10.50;92.90;;;;;;5125114;27;19912;-63
2022/04/09 11:29:19;;;;;;;;;;;10.40;93.90;;;;;;5141194;27;19933;-63
2022/04/09 11:31:46;;;;;;;;;;;10.40;93.90;;;;;;5139668;27;20323;-64
2022/04/09 11:34:12;;;;;;;;;;;10.30;94.20;;;;;;5125162;27;19916;-66
2022/04/09 11:36:37;;;;;;;;;;;10.40;93.90;;;;;;5126999;27;19919;-64
2022/04/09 11:39:03;;;;;;;;;;;10.50;93.80;;;;;;5103499;27;20323;-63
2022/04/09 11:41:29;;;;;;;;;;;10.30;94.20;;;;;;5124665;27;19922;-64
2022/04/09 11:43:55;;;;;;;;;;;10.30;94.00;;;;;;5124164;27;19994;-63
2022/04/09 11:46:21;;;;;;;;;;;10.30;95.10;;;;;;5122187;27;19986;-64
2022/04/09 11:48:59;;;;;;;;;;;10.20;94.20;;;;;;5102390;27;19919;-64
2022/04/09 11:51:25;;;;;;;;;;;10.20;95.40;;;;;;5126500;27;19915;-63
2022/04/09 11:53:50;;;;;;;;;;;10.30;95.10;;;;;;5111213;27;19919;-62
2022/04/09 11:56:16;;;;;;;;;;;10.40;95.20;;;;;;5125157;27;19919;-64
2022/04/09 11:58:42;;;;;;;;;;;10.60;94.90;;;;;;5123639;27;19915;-62
2022/04/09 12:01:09;;;;;;;;;;;10.70;94.70;;;;;;5127036;27;19923;-64
2022/04/09 12:03:35;;;;;;;;;;;10.70;93.50;;;;;;5126600;27;19986;-63
2022/04/09 12:06:01;;;;;;;;;;;10.70;93.80;;;;;;5125925;27;19922;-63
2022/04/09 12:08:28;;;;;;;;;;;10.70;94.40;;;;;;5109734;27;19912;-63
2022/04/09 12:10:53;;;;;;;;;;;10.70;95.10;;;;;;5131077;27;19923;-64
2022/04/09 12:13:26;;;;;;;;;;;10.80;95.30;;;;;;5130529;27;19908;-64
2022/04/09 12:15:52;;;;;;;;;;;10.70;94.80;;;;;;5131624;27;20380;-63
2022/04/09 12:18:24;;;;;;;;;;;10.80;94.70;;;;;;5136718;27;19908;-62
2022/04/09 12:20:50;;;;;;;;;;;11.10;92.80;;;;;;5126750;27;19920;-63
2022/04/09 12:23:27;;;;;;;;;;;11.20;92.70;;;;;;5126785;27;19916;-62
2022/04/09 12:25:52;;;;;;;;;;;11.30;91.60;;;;;;5115916;27;19941;-65
2022/04/09 12:28:22;;;;;;;;;;;11.30;91.00;;;;;;5129519;27;19912;-65
2022/04/09 12:30:49;;;;;;;;;;;11.30;90.70;;;;;;5129221;27;19907;-63
2022/04/09 12:33:15;;;;;;;;;;;11.30;91.00;;;;;;5131090;27;19937;-64
2022/04/09 12:35:41;;;;;;;;;;;11.20;91.10;;;;;;5134402;27;19908;-65
2022/04/09 12:38:10;;;;;;;;;;;11.30;91.30;;;;;;5136433;27;20364;-63
2022/04/09 12:40:38;;;;;;;;;;;11.30;91.00;;;;;;5112532;27;20334;-62
2022/04/09 12:43:23;;;;;;;;;;;11.30;91.00;;;;;;5112389;27;20262;-65
2022/04/09 12:46:09;;;;;;;;;;;11.40;91.00;;;;;;5132148;27;20075;-64
2022/04/09 12:48:42;;;;;;;;;;;11.70;91.00;;;;;;5129424;27;19959;-63
2022/04/09 12:51:10;;;;;;;;;;;11.70;90.20;;;;;;5140195;27;19915;-66
2022/04/09 12:53:36;;;;;;;;;;;11.50;90.00;;;;;;5135846;27;19918;-64
2022/04/09 12:56:05;;;;;;;;;;;11.40;90.80;;;;;;5147365;27;19919;-65
2022/04/09 12:58:31;;;;;;;;;;;11.30;90.90;;;;;;5147665;27;19916;-67
2022/04/09 13:00:57;;;;;;;;;;;11.30;90.60;;;;;;5121884;27;19919;-64
2022/04/09 13:03:22;;;;;;;;;;;11.50;90.20;;;;;;5133529;27;19923;-64
2022/04/09 13:05:48;;;;;;;;;;;11.60;90.50;;;;;;5142635;27;19911;-65
2022/04/09 13:08:14;;;;;;;;;;;11.80;91.10;;;;;;5133858;27;20002;-65
2022/04/09 13:10:39;;;;;;;;;;;11.90;90.90;;;;;;5113155;28;19912;-63
2022/04/09 13:13:05;;;;;;;;;;;11.80;90.20;;;;;;5138372;27;20380;-63
2022/04/09 13:15:33;;;;;;;;;;;11.90;90.50;;;;;;5118323;27;19991;-63
2022/04/09 13:17:59;;;;;;;;;;;11.80;91.20;;;;;;5141931;27;19924;-63
2022/04/09 13:20:24;;;;;;;;;;;11.70;90.80;;;;;;5154700;27;19936;-62
2022/04/09 13:22:50;;;;;;;;;;;11.60;91.40;;;;;;5144912;27;19916;-67
2022/04/09 13:25:18;;;;;;;;;;;11.40;91.10;;;;;;5150139;27;19927;-63
2022/04/09 13:27:44;;;;;;;;;;;11.30;91.90;;;;;;5124075;28;19912;-65
2022/04/09 13:30:16;;;;;;;;;;;11.10;91.10;;;;;;5129605;28;19935;-64
2022/04/09 13:32:42;;;;;;;;;;;11.10;91.00;;;;;;5149405;27;19903;-65
2022/04/09 13:35:07;;;;;;;;;;;11.20;91.90;;;;;;5152540;27;20006;-63
2022/04/09 13:37:33;;;;;;;;;;;11.10;91.80;;;;;;5134058;27;19940;-65
2022/04/09 13:39:59;;;;;;;;;;;11.10;92.20;;;;;;5135223;28;20006;-66
2022/04/09 13:42:25;;;;;;;;;;;11.30;91.40;;;;;;5129965;28;19908;-66
2022/04/09 13:44:51;;;;;;;;;;;11.30;91.40;;;;;;5127152;28;19915;-62
2022/04/09 13:47:19;;;;;;;;;;;11.30;91.30;;;;;;5112888;28;19912;-62
2022/04/09 13:49:45;;;;;;;;;;;11.30;90.40;;;;;;5120588;28;19926;-62
2022/04/09 13:52:11;;;;;;;;;;;11.50;90.20;;;;;;5116352;28;19991;-64
2022/04/09 13:54:36;;;;;;;;;;;11.60;89.90;;;;;;5108015;28;19912;-63
2022/04/09 13:57:03;;;;;;;;;;;11.80;88.70;;;;;;5114483;28;19919;-64
2022/04/09 13:59:29;;;;;;;;;;;11.90;90.00;;;;;;5110431;28;20002;-63
2022/04/09 14:01:54;;;;;;;;;;;12.00;90.10;;;;;;5100416;28;19943;-65
2022/04/09 14:04:20;;;;;;;;;;;12.00;89.90;;;;;;5116586;28;19947;-64
2022/04/09 14:06:45;;;;;;;;;;;12.10;90.10;;;;;;5115715;28;19915;-63
2022/04/09 14:09:11;;;;;;;;;;;12.10;88.50;;;;;;5109368;28;19987;-63
2022/04/09 14:11:37;;;;;;;;;;;12.10;88.90;;;;;;5108991;28;19987;-64
2022/04/09 14:14:03;;;;;;;;;;;11.80;89.00;;;;;;5118792;28;19907;-64
2022/04/09 14:16:29;;;;;;;;;;;11.60;90.40;;;;;;5119716;28;19916;-67
2022/04/09 14:18:55;;;;;;;;;;;11.60;90.80;;;;;;5123007;28;19912;-63
2022/04/09 14:21:20;;;;;;;;;;;11.80;90.30;;;;;;5123991;28;19904;-65
2022/04/09 14:23:46;;;;;;;;;;;11.90;88.70;;;;;;5127339;28;19983;-64
2022/04/09 14:26:12;;;;;;;;;;;11.90;89.50;;;;;;5125612;27;19912;-68
2022/04/09 14:28:37;;;;;;;;;;;11.90;91.20;;;;;;5121218;28;19916;-64